Reno (UNR), Valley Road, Nevada Weather observations

Data are for observation ending at time listed.
 Day   Time    Ave.   Ave.  Ave.  Vector   Max.    Total    Solar   Rl      Baro.   Ave.  
  of    of     Air    Rel.  Wind   Wind    Wind   Precip.   Rad.    in      Pres.   Soil  
Year   Day     Temp.  Hum.  Speed  Dir.    Gust                                     Temp. 
2015   (PST)    F      %     mph   deg.    mph      in.     W/m2    W/m2     mb.     F   
-----------------------------------------------------------------------------------------
 180   11:30   91.3    24    4.7    66     10.1     0.00    1137     453    851.6   82.5
 180   11:40   91.3    24    4.4    64     13.2     0.00     989     453    851.4   82.7
 180   11:50   91.3    24    5.7    66     12.6     0.00    1128     456    851.1   83.0
 180   12:00   92.4    23    3.2    15      7.0     0.00    1086     460    850.9   83.2
 180   12:10   92.0    24    4.9    17     10.2     0.00     393     460    850.7   83.5
 180   12:20   89.9    25    5.2     3      9.4     0.00     368     455    850.6   83.8
 180   12:30   89.8    26    4.6   315      9.4     0.00     340     452    850.6   84.1
 180   12:40   89.4    26    5.8   301     11.0     0.00     393     450    850.5   84.4
 180   12:50   89.8    25    5.5   331     10.8     0.00     532     446    850.4   84.7
 180   13:00   91.9    24    5.3   335     10.7     0.00    1094     448    850.4   84.9
 180   13:10   93.2    22    3.9   349     11.3     0.00    1078     452    850.2   85.2
 180   13:20   94.0    22    5.0    15     12.0     0.00     984     459    850.0   85.3
 180   13:30   92.0    23    6.0    96      9.3     0.00     447     457    849.8   85.5
 180   13:40   92.2    23    4.5    88      9.0     0.00     898     457    849.7   85.6
 180   13:50   95.3    20    5.3   260     10.8     0.00    1047     460    849.5   85.7
 180   14:00   94.6    18    5.3   321      9.3     0.00     715     460    849.5   85.9
 180   14:10   93.3    18    3.9   316      7.2     0.00     384     460    849.3   86.0
 180   14:20   93.4    18    2.6   157      5.9     0.00     439     461    849.2   86.1
 180   14:30   94.3    17    2.7   277     10.7     0.00     478     460    849.1   86.3
 180   14:40   95.2    17    5.4   282     13.6     0.00     750     466    849.0   86.4
 180   14:50   94.5    18    6.5   298     12.1     0.00     640     463    848.9   86.5
 180   15:00   94.0    18    8.3   283     14.9     0.00     448     458    848.8   86.7
 180   15:10   93.2    18    8.1   287     20.0     0.00     532     457    848.7   86.8
 180   15:20   94.6    17    6.4   260     11.4     0.00     468     460    848.7   86.9
 180   15:30   95.3    17    5.5   261     12.0     0.00     540     465    848.7   87.0
 180   15:40   95.2    16    9.2   264     16.3     0.00     585     462    848.6   87.1
 180   15:50   94.0    16    8.8   263     16.3     0.00     373     462    848.7   87.2
 180   16:00   93.3    16    8.5   267     16.1     0.00     398     464    848.8   87.2
 180   16:10   94.1    16    7.9   262     15.2     0.00     473     467    848.8   87.3
 180   16:20   92.9    17    6.9   264     13.6     0.00     175     464    848.9   87.4
 180   16:30   92.9    16    4.7   196      9.3     0.00     226     469    849.1   87.4
 180   16:40   90.6    25   12.4   180     24.2     0.00     204     469    849.5   87.5
 180   16:50   87.7    29   12.2   172     20.9     0.00     194     455    849.7   87.5
 180   17:00   86.8    29   12.6   173     21.7     0.00     177     447    849.8   87.5
 180   17:10   87.0    28   10.3   168     18.2     0.00     152     444    849.9   87.6
 180   17:20   87.1    28   11.5   168     21.0     0.00     224     444    850.1   87.6
 180   17:30   88.2    26    9.3   166     14.6     0.00     321     448    850.2   87.5
 180   17:40   89.1    25    8.6   174     15.5     0.00     231     457    850.3   87.5
 180   17:50   88.5    26    9.0   173     14.8     0.00     187     453    850.3   87.5
 180   18:00   88.4    26    8.2   173     15.8     0.00     148     446    850.5   87.5
 180   18:10   87.2    28   12.5   170     20.4     0.00     130     438    850.8   87.4
 180   18:20   85.3    30   12.8   174     22.6     0.00     119     431    851.1   87.4
 180   18:30   84.8    30   11.2   174     20.1     0.00     105     430    851.4   87.3
 180   18:40   84.7    31   10.1   182     18.7     0.00     111     433    851.7   87.3
 180   18:50   84.3    31   11.0   178     19.2     0.00      79     435    851.9   87.2
 180   19:00   83.9    32   12.9   177     23.8     0.00      74     441    852.1   87.2
 180   19:10   83.0    34   13.7   170     25.6     0.00      44     438    852.2   87.1
 180   19:20   82.6    35   12.6   170     22.7     0.00      33     435    852.4   87.0
 180   19:30   82.1    36   11.6   164     18.8     0.00      18     441    852.5   86.9
 180   19:40   81.8    37   10.2   165     18.5     0.00       8     440    852.6   86.8
 180   19:50   81.4    38   10.5   158     18.4     0.00       1     438    852.8   86.8
 180   20:00   81.0    39    9.1   158     15.1     0.00       0     437    852.8   86.7
 180   20:10   81.0    38    8.1   158     13.2     0.00       0     434    853.0   86.6
 180   20:20   81.1    38    4.6   168      8.5     0.00       0     426    853.2   86.5
 180   20:30   80.9    38    2.6   298      5.2     0.00       0     422    853.3   86.4
 180   20:40   79.1    41    3.9   322      5.8     0.00       0     412    853.3   86.3
 180   20:50   79.4    40    3.9   312      5.9     0.00       0     411    853.2   86.2
 180   21:00   79.8    38    3.9   325      8.0     0.00       0     411    853.4   86.1
 180   21:10   81.6    32    5.0   281     10.8     0.00       0     415    853.6   85.9
 180   21:20   83.0    31    5.0   266     13.4     0.00       0     418    853.8   85.8
 180   21:30   82.2    32    3.7   349      6.2     0.00       0     413    853.9   85.7
 180   21:40   81.1    31    4.5    48      7.2     0.00       0     409    854.1   85.6
 180   21:50   80.6    34    4.5    78      7.5     0.00       0     413    854.2   85.5
 180   22:00   79.9    36    2.1   340      6.0     0.00       0     425    854.3   85.4
 180   22:10   79.4    35    3.4   356      6.3     0.00       0     428    854.2   85.2
 180   22:20   80.2    33    1.4   305      7.1     0.00       0     433    854.4   85.1
 180   22:30   80.1    33    1.2   220      3.8     0.00       0     435    854.6   85.0
 180   22:40   79.2    36    3.6   313      6.2     0.00       0     435    854.7   84.9
 180   22:50   79.6    32    4.4   319      7.8     0.00       0     435    854.7   84.8
 180   23:00   79.6    30    5.4   336      9.0     0.00       0     430    854.8   84.7
 180   23:10   79.3    30    5.5   336      9.1     0.00       0     428    854.8   84.5
 180   23:20   78.9    31    3.5   293      6.1     0.00       0     435    854.9   84.4
 180   23:30   78.7    32    2.6   240      4.2     0.00       0     432    855.0   84.3
 180   23:40   78.7    34    2.8   261      4.6     0.00       0     425    855.0   84.2
 180   23:50   78.2    35    1.1   244      3.0     0.00       0     420    855.1   84.1
 181    0:00   77.2    39    2.0   257      3.4     0.00       0     412    855.2   84.0
 181    0:10   76.9    42    2.5   235      4.8     0.00       0     404    855.3   83.9
 181    0:20   76.0    44    1.3     1      2.8     0.00       0     396    855.5   83.8
 181    0:30   74.4    47    1.6   354      2.3     0.00       0     391    855.6   83.7
 181    0:40   73.4    48    2.3     4      3.4     0.00       0     386    855.8   83.6
 181    0:50   72.7    50    1.9   314      2.4     0.00       0     384    855.9   83.5
 181    1:00   72.4    52    1.6   241      3.1     0.00       0     384    855.9   83.4
 181    1:10   72.5    50    1.8   238      4.0     0.00       0     382    856.0   83.3
 181    1:20   72.0    52    2.5   356      4.7     0.00       0     381    856.0   83.2
 181    1:30   71.5    53    0.5   323      2.2     0.00       0     378    856.0   83.1
 181    1:40   70.5    55    0.4    15      2.2     0.00       0     381    856.2   83.0
 181    1:50   70.7    54    1.4   117      2.5     0.00       0     382    856.3   82.9
 181    2:00   70.1    55    0.3    28      1.7     0.00       0     379    856.5   82.8
 181    2:10   69.2    58    1.3   317      2.6     0.00       0     377    856.7   82.7
 181    2:20   68.6    58    2.0   334      3.1     0.00       0     377    856.7   82.6
 181    2:30   67.8    58    1.6   318      2.7     0.00       0     375    856.8   82.5
 181    2:40   69.0    54    1.1   229      2.4     0.00       0     383    856.9   82.3
 181    2:50   69.1    54    1.2   299      3.3     0.00       0     386    856.9   82.2
 181    3:00   68.8    55    1.4   317      3.0     0.00       0     392    856.9   82.1
 181    3:10   68.7    57    2.5   276      4.1     0.00       0     394    857.0   82.0
 181    3:20   70.4    53    1.7   269      3.8     0.00       0     398    857.0   81.9
 181    3:30   70.0    54    1.9   316      2.5     0.00       0     392    856.9   81.8
 181    3:40   69.3    52    2.1   308      3.0     0.00       0     385    857.0   81.6
 181    3:50   69.1    50    1.3   281      2.5     0.00       0     404    857.0   81.5
 181    4:00   69.4    48    1.3   280      2.3     0.00       0     412    857.0   81.4
 181    4:10   69.6    47    0.5   258      2.0     0.00       0     413    857.0   81.3
 181    4:20   69.6    49    0.4   318      1.8     0.00       0     404    857.0   81.2
 181    4:30   69.2    49    0.3    34      1.5     0.00       2     388    857.0   81.1
 181    4:40   68.5    52    1.4   337      2.5     0.00       4     377    857.1   81.0
 181    4:50   68.3    52    2.7    16      3.4     0.00       8     374    857.2   80.9
 181    5:00   68.7    52    0.6    49      3.3     0.00      19     370    857.3   80.8
 181    5:10   69.2    52    0.6   278      2.0     0.00      37     370    857.4   80.7
 181    5:20   69.2    54    1.5   326      2.7     0.00      70     374    857.3   80.7
 181    5:30   70.1    53    1.4   339      2.7     0.00     115     377    857.2   80.6
 181    5:40   72.1    52    0.4   332      2.0     0.00     132     374    857.0   80.5
 181    5:50   75.0    46    1.7   251      3.7     0.00     150     376    856.8   80.4
 181    6:00   76.1    45    2.3   246      4.1     0.00     192     384    856.6   80.3
 181    6:10   76.0    42    2.7   313      4.5     0.00     219     386    856.4   80.2
 181    6:20   75.8    42    3.1   305      4.8     0.00     237     384    856.1   80.1
 181    6:30   76.7    38    1.3   307      2.9     0.00     251     388    855.9   80.1
 181    6:40   78.9    34    0.3   333      1.8     0.00     293     389    855.7   80.0
 181    6:50   81.7    30    0.1    27      1.5     0.00     310     394    855.5   80.0
 181    7:00   81.4    30    0.9    46      2.5     0.00     302     395    855.4   80.0
 181    7:10   81.6    31    1.2    68      4.2     0.00     358     399    855.3   79.9
 181    7:20   80.9    33    1.9    74      4.2     0.00     360     401    855.1   79.9
 181    7:30   81.4    35    2.0   140      4.0     0.00     420     403    855.0   79.9
 181    7:40   82.9    33    1.7    53      4.5     0.00     417     406    855.0   80.0
 181    7:50   82.4    34    2.1   108      4.2     0.00     515     408    854.8   80.0
 181    8:00   82.8    34    1.9   131      4.7     0.00     530     409    854.7   80.0
 181    8:10   85.2    31    2.4   179      4.5     0.00     615     414    854.6   80.1
 181    8:20   84.7    30    2.2   147      4.1     0.00     576     416    854.3   80.2
 181    8:30   86.5    27    2.4   141      5.4     0.00     684     418    854.1   80.3
 181    8:40   86.2    25    1.8    92      4.6     0.00     634     421    853.9   80.4
 181    8:50   86.9    25    2.4   111      6.3     0.00     645     422    853.8   80.5
 181    9:00   86.7    25    3.0    83      7.0     0.00     721     426    853.7   80.7
 181    9:10   86.7    25    3.0    54      7.3     0.00     736     426    853.5   80.8
 181    9:20   88.4    22    3.6    95      7.9     0.00     770     430    853.2   81.0
 181    9:30   89.1    23    1.9    71      4.9     0.00     756     430    853.0   81.2
 181    9:40   89.5    22    3.6    27      7.6     0.00     806     434    852.8   81.4
 181    9:50   89.7    23    3.1    74      6.7     0.00     851     432    852.7   81.6
 181   10:00   90.2    21    4.2    57      8.6     0.00     866     433    852.5   81.8
 181   10:10   91.0    21    2.4    19      6.4     0.00     851     431    852.4   82.0
 181   10:20   91.4    20    3.1    94      6.8     0.00     812     435    852.1   82.1
 181   10:30   91.2    20    3.6    50      7.8     0.00     869     436    852.0   82.3
 181   10:40   92.5    18    3.6    30      9.3     0.00     955     439    851.9   82.5
 181   10:50   92.3    18    3.5    45      8.8     0.00     981     440    851.8   82.7
 181   11:00   93.1    17    5.6   131      9.3     0.00     971     443    851.5   82.9
 181   11:10   92.8    18    5.1   116      9.9     0.00     855     442    851.2   83.1
 181   11:20   92.7    17    4.8    99      9.4     0.00     663     442    851.1   83.3

Return to Reno (UNR), Nevada graphs page.


Western Regional Climate Center,wrcc@dri.edu